sensor_id;sensor_type;location;lat;lon;timestamp;P1;durP1;ratioP1;P2;durP2;ratioP2
26335;SDS011;14047;50.936;4.654;2023-07-13T00:01:58;9.70;;;1.83;;
26335;SDS011;14047;50.936;4.654;2023-07-13T00:04:24;7.32;;;1.95;;
26335;SDS011;14047;50.936;4.654;2023-07-13T00:06:51;11.80;;;1.67;;
26335;SDS011;14047;50.936;4.654;2023-07-13T00:09:18;7.18;;;1.88;;
26335;SDS011;14047;50.936;4.654;2023-07-13T00:11:45;10.10;;;1.98;;
26335;SDS011;14047;50.936;4.654;2023-07-13T00:14:16;5.68;;;1.55;;
26335;SDS011;14047;50.936;4.654;2023-07-13T00:16:42;6.55;;;1.45;;
26335;SDS011;14047;50.936;4.654;2023-07-13T00:19:09;10.85;;;2.45;;
26335;SDS011;14047;50.936;4.654;2023-07-13T00:21:37;7.47;;;2.08;;
26335;SDS011;14047;50.936;4.654;2023-07-13T00:24:07;6.63;;;2.22;;
26335;SDS011;14047;50.936;4.654;2023-07-13T00:26:38;8.18;;;1.75;;
26335;SDS011;14047;50.936;4.654;2023-07-13T00:29:04;6.93;;;1.35;;
26335;SDS011;14047;50.936;4.654;2023-07-13T00:31:34;10.27;;;2.08;;
26335;SDS011;14047;50.936;4.654;2023-07-13T00:34:01;9.18;;;1.70;;
26335;SDS011;14047;50.936;4.654;2023-07-13T00:36:27;5.25;;;1.52;;
26335;SDS011;14047;50.936;4.654;2023-07-13T00:38:56;8.18;;;1.98;;
26335;SDS011;14047;50.936;4.654;2023-07-13T00:41:23;6.00;;;1.85;;
26335;SDS011;14047;50.936;4.654;2023-07-13T00:43:51;9.60;;;2.30;;
26335;SDS011;14047;50.936;4.654;2023-07-13T00:46:27;11.52;;;2.10;;
26335;SDS011;14047;50.936;4.654;2023-07-13T00:48:56;12.77;;;1.98;;
26335;SDS011;14047;50.936;4.654;2023-07-13T00:51:27;13.43;;;2.10;;
26335;SDS011;14047;50.936;4.654;2023-07-13T00:53:58;7.95;;;1.90;;
26335;SDS011;14047;50.936;4.654;2023-07-13T00:56:26;7.15;;;1.65;;
26335;SDS011;14047;50.936;4.654;2023-07-13T00:58:53;8.50;;;2.17;;
26335;SDS011;14047;50.936;4.654;2023-07-13T01:01:20;8.73;;;2.03;;
26335;SDS011;14047;50.936;4.654;2023-07-13T01:03:47;8.45;;;1.65;;
26335;SDS011;14047;50.936;4.654;2023-07-13T01:06:13;8.57;;;2.10;;
26335;SDS011;14047;50.936;4.654;2023-07-13T01:08:39;14.68;;;2.63;;
26335;SDS011;14047;50.936;4.654;2023-07-13T01:11:05;7.88;;;1.92;;
26335;SDS011;14047;50.936;4.654;2023-07-13T01:13:33;17.40;;;2.17;;
26335;SDS011;14047;50.936;4.654;2023-07-13T01:16:01;8.77;;;2.05;;
26335;SDS011;14047;50.936;4.654;2023-07-13T01:18:31;12.20;;;2.40;;
26335;SDS011;14047;50.936;4.654;2023-07-13T01:20:59;7.85;;;2.78;;
26335;SDS011;14047;50.936;4.654;2023-07-13T01:23:27;9.52;;;2.05;;
26335;SDS011;14047;50.936;4.654;2023-07-13T01:25:54;10.77;;;1.90;;
26335;SDS011;14047;50.936;4.654;2023-07-13T01:28:23;10.82;;;3.22;;
26335;SDS011;14047;50.936;4.654;2023-07-13T01:30:52;10.80;;;2.03;;
26335;SDS011;14047;50.936;4.654;2023-07-13T01:33:20;9.10;;;2.35;;
26335;SDS011;14047;50.936;4.654;2023-07-13T01:35:46;11.00;;;2.72;;
26335;SDS011;14047;50.936;4.654;2023-07-13T01:38:16;10.55;;;2.20;;
26335;SDS011;14047;50.936;4.654;2023-07-13T01:40:44;10.00;;;2.08;;
26335;SDS011;14047;50.936;4.654;2023-07-13T01:43:10;7.95;;;1.98;;
26335;SDS011;14047;50.936;4.654;2023-07-13T01:45:36;6.20;;;1.90;;
26335;SDS011;14047;50.936;4.654;2023-07-13T01:48:02;17.20;;;2.83;;
26335;SDS011;14047;50.936;4.654;2023-07-13T01:50:29;13.05;;;2.47;;
26335;SDS011;14047;50.936;4.654;2023-07-13T01:52:56;8.45;;;2.38;;
26335;SDS011;14047;50.936;4.654;2023-07-13T01:55:22;7.00;;;2.28;;
26335;SDS011;14047;50.936;4.654;2023-07-13T01:57:48;8.77;;;2.20;;
26335;SDS011;14047;50.936;4.654;2023-07-13T02:00:15;15.15;;;2.55;;
26335;SDS011;14047;50.936;4.654;2023-07-13T02:02:41;8.35;;;2.33;;
26335;SDS011;14047;50.936;4.654;2023-07-13T02:05:09;12.02;;;2.50;;
26335;SDS011;14047;50.936;4.654;2023-07-13T02:07:36;8.80;;;2.72;;
26335;SDS011;14047;50.936;4.654;2023-07-13T02:10:03;13.85;;;2.33;;
26335;SDS011;14047;50.936;4.654;2023-07-13T02:12:30;12.25;;;2.13;;
26335;SDS011;14047;50.936;4.654;2023-07-13T02:14:56;11.95;;;2.58;;
26335;SDS011;14047;50.936;4.654;2023-07-13T02:17:22;9.35;;;2.67;;
26335;SDS011;14047;50.936;4.654;2023-07-13T02:19:48;13.73;;;2.75;;
26335;SDS011;14047;50.936;4.654;2023-07-13T02:22:14;8.68;;;1.88;;
26335;SDS011;14047;50.936;4.654;2023-07-13T02:24:40;9.13;;;2.08;;
26335;SDS011;14047;50.936;4.654;2023-07-13T02:27:06;10.95;;;2.50;;
26335;SDS011;14047;50.936;4.654;2023-07-13T02:29:32;7.13;;;1.80;;
26335;SDS011;14047;50.936;4.654;2023-07-13T02:31:58;10.65;;;2.60;;
26335;SDS011;14047;50.936;4.654;2023-07-13T02:34:24;11.68;;;2.25;;
26335;SDS011;14047;50.936;4.654;2023-07-13T02:36:49;8.02;;;1.90;;
26335;SDS011;14047;50.936;4.654;2023-07-13T02:39:16;10.15;;;2.28;;
26335;SDS011;14047;50.936;4.654;2023-07-13T02:41:42;7.40;;;2.28;;
26335;SDS011;14047;50.936;4.654;2023-07-13T02:44:08;6.20;;;1.77;;
26335;SDS011;14047;50.936;4.654;2023-07-13T02:46:35;14.20;;;2.30;;
26335;SDS011;14047;50.936;4.654;2023-07-13T02:49:02;12.43;;;2.85;;
26335;SDS011;14047;50.936;4.654;2023-07-13T02:51:30;8.85;;;2.40;;
26335;SDS011;14047;50.936;4.654;2023-07-13T02:54:03;9.15;;;2.25;;
26335;SDS011;14047;50.936;4.654;2023-07-13T02:56:31;9.60;;;2.08;;
26335;SDS011;14047;50.936;4.654;2023-07-13T02:58:58;12.00;;;2.20;;
26335;SDS011;14047;50.936;4.654;2023-07-13T03:01:25;10.77;;;1.85;;
26335;SDS011;14047;50.936;4.654;2023-07-13T03:03:52;9.07;;;2.33;;
26335;SDS011;14047;50.936;4.654;2023-07-13T03:06:19;14.25;;;2.90;;
26335;SDS011;14047;50.936;4.654;2023-07-13T03:08:49;6.88;;;2.25;;
26335;SDS011;14047;50.936;4.654;2023-07-13T03:11:17;9.98;;;2.50;;
26335;SDS011;14047;50.936;4.654;2023-07-13T03:13:48;6.13;;;2.28;;
26335;SDS011;14047;50.936;4.654;2023-07-13T03:16:15;7.55;;;2.50;;
26335;SDS011;14047;50.936;4.654;2023-07-13T03:18:44;9.60;;;2.20;;
26335;SDS011;14047;50.936;4.654;2023-07-13T03:21:11;15.55;;;2.90;;
26335;SDS011;14047;50.936;4.654;2023-07-13T03:23:38;11.25;;;2.35;;
26335;SDS011;14047;50.936;4.654;2023-07-13T03:26:09;9.52;;;2.50;;
26335;SDS011;14047;50.936;4.654;2023-07-13T03:28:40;9.23;;;2.60;;
26335;SDS011;14047;50.936;4.654;2023-07-13T03:31:15;12.90;;;2.78;;
26335;SDS011;14047;50.936;4.654;2023-07-13T03:33:43;13.18;;;3.38;;
26335;SDS011;14047;50.936;4.654;2023-07-13T03:36:13;15.65;;;2.45;;
26335;SDS011;14047;50.936;4.654;2023-07-13T03:38:52;13.40;;;3.13;;
26335;SDS011;14047;50.936;4.654;2023-07-13T03:41:22;9.77;;;2.40;;
26335;SDS011;14047;50.936;4.654;2023-07-13T03:43:51;15.48;;;3.53;;
26335;SDS011;14047;50.936;4.654;2023-07-13T03:46:19;10.98;;;2.58;;
26335;SDS011;14047;50.936;4.654;2023-07-13T03:48:47;11.82;;;2.53;;
26335;SDS011;14047;50.936;4.654;2023-07-13T03:51:13;12.07;;;3.33;;
26335;SDS011;14047;50.936;4.654;2023-07-13T03:53:43;12.95;;;2.63;;
26335;SDS011;14047;50.936;4.654;2023-07-13T03:56:12;15.07;;;3.08;;
26335;SDS011;14047;50.936;4.654;2023-07-13T03:58:41;16.60;;;2.75;;
26335;SDS011;14047;50.936;4.654;2023-07-13T04:01:15;10.55;;;2.42;;
26335;SDS011;14047;50.936;4.654;2023-07-13T04:03:43;14.27;;;2.50;;
26335;SDS011;14047;50.936;4.654;2023-07-13T04:06:19;7.82;;;1.77;;
26335;SDS011;14047;50.936;4.654;2023-07-13T04:08:54;12.43;;;2.22;;
26335;SDS011;14047;50.936;4.654;2023-07-13T04:11:26;18.70;;;2.80;;
26335;SDS011;14047;50.936;4.654;2023-07-13T04:13:54;15.27;;;2.65;;
26335;SDS011;14047;50.936;4.654;2023-07-13T04:16:20;11.38;;;2.50;;
26335;SDS011;14047;50.936;4.654;2023-07-13T04:18:46;11.80;;;2.47;;
26335;SDS011;14047;50.936;4.654;2023-07-13T04:21:13;9.52;;;2.63;;
26335;SDS011;14047;50.936;4.654;2023-07-13T04:23:40;10.63;;;2.45;;
26335;SDS011;14047;50.936;4.654;2023-07-13T04:26:06;9.88;;;2.85;;
26335;SDS011;14047;50.936;4.654;2023-07-13T04:28:33;13.77;;;2.10;;
26335;SDS011;14047;50.936;4.654;2023-07-13T04:30:59;10.38;;;2.63;;
26335;SDS011;14047;50.936;4.654;2023-07-13T04:33:26;12.25;;;2.28;;
26335;SDS011;14047;50.936;4.654;2023-07-13T04:35:53;11.27;;;2.47;;
26335;SDS011;14047;50.936;4.654;2023-07-13T04:38:26;11.38;;;3.08;;
26335;SDS011;14047;50.936;4.654;2023-07-13T04:40:58;10.95;;;2.78;;
26335;SDS011;14047;50.936;4.654;2023-07-13T04:43:26;14.55;;;2.17;;
26335;SDS011;14047;50.936;4.654;2023-07-13T04:45:53;12.00;;;2.42;;
26335;SDS011;14047;50.936;4.654;2023-07-13T04:48:19;9.07;;;2.78;;
26335;SDS011;14047;50.936;4.654;2023-07-13T04:50:46;11.60;;;2.63;;
26335;SDS011;14047;50.936;4.654;2023-07-13T04:53:12;13.27;;;2.78;;
26335;SDS011;14047;50.936;4.654;2023-07-13T04:55:39;14.23;;;2.47;;
26335;SDS011;14047;50.936;4.654;2023-07-13T04:58:06;16.35;;;3.13;;
26335;SDS011;14047;50.936;4.654;2023-07-13T05:00:32;12.88;;;3.03;;
26335;SDS011;14047;50.936;4.654;2023-07-13T05:02:58;14.45;;;2.92;;
26335;SDS011;14047;50.936;4.654;2023-07-13T05:05:24;15.68;;;2.50;;
26335;SDS011;14047;50.936;4.654;2023-07-13T05:07:51;10.70;;;3.03;;
26335;SDS011;14047;50.936;4.654;2023-07-13T05:10:18;13.63;;;3.47;;
26335;SDS011;14047;50.936;4.654;2023-07-13T05:12:44;13.73;;;2.80;;
26335;SDS011;14047;50.936;4.654;2023-07-13T05:15:10;19.30;;;3.60;;
26335;SDS011;14047;50.936;4.654;2023-07-13T05:17:36;11.20;;;3.03;;
26335;SDS011;14047;50.936;4.654;2023-07-13T05:20:04;11.63;;;2.63;;
26335;SDS011;14047;50.936;4.654;2023-07-13T05:22:32;11.73;;;2.85;;
26335;SDS011;14047;50.936;4.654;2023-07-13T05:25:00;8.68;;;2.90;;
26335;SDS011;14047;50.936;4.654;2023-07-13T05:27:28;15.40;;;4.05;;
26335;SDS011;14047;50.936;4.654;2023-07-13T05:29:54;11.95;;;2.80;;
26335;SDS011;14047;50.936;4.654;2023-07-13T05:32:20;17.08;;;3.00;;
26335;SDS011;14047;50.936;4.654;2023-07-13T05:34:46;19.90;;;3.42;;
26335;SDS011;14047;50.936;4.654;2023-07-13T05:37:12;14.25;;;3.15;;
26335;SDS011;14047;50.936;4.654;2023-07-13T05:39:38;18.05;;;3.45;;
26335;SDS011;14047;50.936;4.654;2023-07-13T05:42:05;16.35;;;3.80;;
26335;SDS011;14047;50.936;4.654;2023-07-13T05:44:31;15.95;;;3.95;;
26335;SDS011;14047;50.936;4.654;2023-07-13T05:46:57;16.38;;;3.78;;
26335;SDS011;14047;50.936;4.654;2023-07-13T05:49:23;18.73;;;3.88;;
26335;SDS011;14047;50.936;4.654;2023-07-13T05:51:49;18.13;;;3.50;;
26335;SDS011;14047;50.936;4.654;2023-07-13T05:54:15;11.52;;;3.10;;
26335;SDS011;14047;50.936;4.654;2023-07-13T05:56:41;13.35;;;3.22;;
26335;SDS011;14047;50.936;4.654;2023-07-13T05:59:07;12.43;;;2.92;;
26335;SDS011;14047;50.936;4.654;2023-07-13T06:01:33;11.43;;;3.33;;
26335;SDS011;14047;50.936;4.654;2023-07-13T06:03:59;18.25;;;3.38;;
26335;SDS011;14047;50.936;4.654;2023-07-13T06:06:25;11.65;;;3.05;;
26335;SDS011;14047;50.936;4.654;2023-07-13T06:08:51;16.02;;;3.90;;
26335;SDS011;14047;50.936;4.654;2023-07-13T06:11:21;18.48;;;2.65;;
26335;SDS011;14047;50.936;4.654;2023-07-13T06:13:48;12.15;;;2.78;;
26335;SDS011;14047;50.936;4.654;2023-07-13T06:16:15;21.27;;;3.70;;
26335;SDS011;14047;50.936;4.654;2023-07-13T06:18:41;16.52;;;2.95;;
26335;SDS011;14047;50.936;4.654;2023-07-13T06:21:13;16.10;;;2.85;;
26335;SDS011;14047;50.936;4.654;2023-07-13T06:23:44;14.27;;;3.08;;
26335;SDS011;14047;50.936;4.654;2023-07-13T06:26:12;10.25;;;3.15;;
26335;SDS011;14047;50.936;4.654;2023-07-13T06:28:39;16.88;;;3.40;;
26335;SDS011;14047;50.936;4.654;2023-07-13T06:31:08;23.10;;;2.80;;
26335;SDS011;14047;50.936;4.654;2023-07-13T06:33:35;16.52;;;3.25;;
26335;SDS011;14047;50.936;4.654;2023-07-13T06:36:04;15.93;;;3.65;;
26335;SDS011;14047;50.936;4.654;2023-07-13T06:38:31;16.25;;;3.05;;
26335;SDS011;14047;50.936;4.654;2023-07-13T06:40:57;14.85;;;3.20;;
26335;SDS011;14047;50.936;4.654;2023-07-13T06:43:23;12.85;;;2.78;;
26335;SDS011;14047;50.936;4.654;2023-07-13T06:45:50;18.27;;;3.25;;
26335;SDS011;14047;50.936;4.654;2023-07-13T06:48:17;15.32;;;3.42;;
26335;SDS011;14047;50.936;4.654;2023-07-13T06:50:44;11.40;;;2.72;;
26335;SDS011;14047;50.936;4.654;2023-07-13T06:53:11;17.60;;;3.22;;
26335;SDS011;14047;50.936;4.654;2023-07-13T06:55:38;12.80;;;2.63;;
26335;SDS011;14047;50.936;4.654;2023-07-13T06:58:04;19.02;;;4.40;;
26335;SDS011;14047;50.936;4.654;2023-07-13T07:00:31;21.60;;;3.97;;
26335;SDS011;14047;50.936;4.654;2023-07-13T07:02:57;14.38;;;2.85;;
26335;SDS011;14047;50.936;4.654;2023-07-13T07:05:23;12.88;;;3.10;;
26335;SDS011;14047;50.936;4.654;2023-07-13T07:07:49;14.90;;;3.45;;
26335;SDS011;14047;50.936;4.654;2023-07-13T07:10:17;14.23;;;2.97;;
26335;SDS011;14047;50.936;4.654;2023-07-13T07:12:43;17.27;;;2.95;;
26335;SDS011;14047;50.936;4.654;2023-07-13T07:15:09;15.18;;;3.03;;
26335;SDS011;14047;50.936;4.654;2023-07-13T07:17:35;21.13;;;3.33;;
26335;SDS011;14047;50.936;4.654;2023-07-13T07:20:01;16.85;;;3.25;;
26335;SDS011;14047;50.936;4.654;2023-07-13T07:22:28;12.77;;;2.72;;
26335;SDS011;14047;50.936;4.654;2023-07-13T07:24:55;13.40;;;2.92;;
26335;SDS011;14047;50.936;4.654;2023-07-13T07:27:22;17.35;;;2.70;;
26335;SDS011;14047;50.936;4.654;2023-07-13T07:29:49;15.18;;;2.97;;
26335;SDS011;14047;50.936;4.654;2023-07-13T07:32:15;14.68;;;3.38;;
26335;SDS011;14047;50.936;4.654;2023-07-13T07:34:41;17.08;;;3.15;;
26335;SDS011;14047;50.936;4.654;2023-07-13T07:37:10;14.55;;;2.63;;
26335;SDS011;14047;50.936;4.654;2023-07-13T07:39:37;15.60;;;3.42;;
26335;SDS011;14047;50.936;4.654;2023-07-13T07:42:03;14.10;;;3.17;;
26335;SDS011;14047;50.936;4.654;2023-07-13T07:44:33;15.38;;;3.00;;
26335;SDS011;14047;50.936;4.654;2023-07-13T07:46:59;13.13;;;2.90;;
26335;SDS011;14047;50.936;4.654;2023-07-13T07:49:25;13.30;;;3.22;;
26335;SDS011;14047;50.936;4.654;2023-07-13T07:51:51;11.55;;;2.78;;
26335;SDS011;14047;50.936;4.654;2023-07-13T07:54:17;15.77;;;2.78;;
26335;SDS011;14047;50.936;4.654;2023-07-13T07:56:43;13.82;;;2.97;;
26335;SDS011;14047;50.936;4.654;2023-07-13T07:59:09;11.27;;;2.60;;
26335;SDS011;14047;50.936;4.654;2023-07-13T08:01:36;18.67;;;2.85;;
26335;SDS011;14047;50.936;4.654;2023-07-13T08:04:02;13.10;;;2.90;;
26335;SDS011;14047;50.936;4.654;2023-07-13T08:06:28;15.52;;;2.88;;
26335;SDS011;14047;50.936;4.654;2023-07-13T08:08:55;15.88;;;2.95;;
26335;SDS011;14047;50.936;4.654;2023-07-13T08:11:21;16.90;;;3.35;;
26335;SDS011;14047;50.936;4.654;2023-07-13T08:13:47;15.32;;;3.60;;
26335;SDS011;14047;50.936;4.654;2023-07-13T08:16:15;15.60;;;3.05;;
26335;SDS011;14047;50.936;4.654;2023-07-13T08:18:41;15.48;;;2.58;;
26335;SDS011;14047;50.936;4.654;2023-07-13T08:21:08;12.20;;;3.70;;
26335;SDS011;14047;50.936;4.654;2023-07-13T08:23:35;10.30;;;2.70;;
26335;SDS011;14047;50.936;4.654;2023-07-13T08:26:01;13.57;;;2.78;;
26335;SDS011;14047;50.936;4.654;2023-07-13T08:28:28;13.07;;;3.17;;
26335;SDS011;14047;50.936;4.654;2023-07-13T08:30:54;18.02;;;3.90;;
26335;SDS011;14047;50.936;4.654;2023-07-13T08:33:25;11.25;;;2.95;;
26335;SDS011;14047;50.936;4.654;2023-07-13T08:35:51;11.23;;;3.17;;
26335;SDS011;14047;50.936;4.654;2023-07-13T08:38:17;10.15;;;2.35;;
26335;SDS011;14047;50.936;4.654;2023-07-13T08:40:43;11.98;;;2.30;;
26335;SDS011;14047;50.936;4.654;2023-07-13T08:43:18;9.73;;;2.70;;
26335;SDS011;14047;50.936;4.654;2023-07-13T08:45:53;14.82;;;2.63;;
26335;SDS011;14047;50.936;4.654;2023-07-13T08:48:31;17.20;;;3.78;;
26335;SDS011;14047;50.936;4.654;2023-07-13T08:54:19;9.75;;;2.60;;
26335;SDS011;14047;50.936;4.654;2023-07-13T08:56:56;12.48;;;2.58;;
26335;SDS011;14047;50.936;4.654;2023-07-13T08:59:25;11.95;;;2.83;;
26335;SDS011;14047;50.936;4.654;2023-07-13T09:04:52;8.95;;;2.65;;
26335;SDS011;14047;50.936;4.654;2023-07-13T09:15:52;9.57;;;2.40;;
26335;SDS011;14047;50.936;4.654;2023-07-13T09:18:21;7.47;;;1.90;;
26335;SDS011;14047;50.936;4.654;2023-07-13T09:21:09;6.35;;;2.35;;
26335;SDS011;14047;50.936;4.654;2023-07-13T09:23:36;7.45;;;2.28;;
26335;SDS011;14047;50.936;4.654;2023-07-13T09:26:09;10.27;;;2.17;;
26335;SDS011;14047;50.936;4.654;2023-07-13T09:28:43;9.93;;;2.63;;
26335;SDS011;14047;50.936;4.654;2023-07-13T09:31:18;7.97;;;2.33;;
26335;SDS011;14047;50.936;4.654;2023-07-13T09:34:04;6.97;;;2.00;;
26335;SDS011;14047;50.936;4.654;2023-07-13T09:36:35;11.35;;;2.00;;
26335;SDS011;14047;50.936;4.654;2023-07-13T09:39:05;7.50;;;1.65;;
26335;SDS011;14047;50.936;4.654;2023-07-13T09:41:57;8.27;;;1.90;;
26335;SDS011;14047;50.936;4.654;2023-07-13T09:47:39;5.75;;;1.83;;
26335;SDS011;14047;50.936;4.654;2023-07-13T09:50:10;4.20;;;1.50;;
26335;SDS011;14047;50.936;4.654;2023-07-13T09:52:45;8.65;;;1.80;;
26335;SDS011;14047;50.936;4.654;2023-07-13T09:55:26;11.43;;;2.25;;
26335;SDS011;14047;50.936;4.654;2023-07-13T09:58:22;8.68;;;2.10;;
26335;SDS011;14047;50.936;4.654;2023-07-13T10:00:54;6.47;;;1.75;;
26335;SDS011;14047;50.936;4.654;2023-07-13T10:03:29;8.50;;;2.38;;
26335;SDS011;14047;50.936;4.654;2023-07-13T10:06:16;4.03;;;1.52;;
26335;SDS011;14047;50.936;4.654;2023-07-13T10:08:44;13.45;;;1.67;;
26335;SDS011;14047;50.936;4.654;2023-07-13T10:11:14;4.20;;;1.50;;
26335;SDS011;14047;50.936;4.654;2023-07-13T10:13:51;6.18;;;1.95;;
26335;SDS011;14047;50.936;4.654;2023-07-13T10:16:23;11.27;;;2.45;;
26335;SDS011;14047;50.936;4.654;2023-07-13T10:19:34;6.55;;;2.00;;
26335;SDS011;14047;50.936;4.654;2023-07-13T10:21:52;7.22;;;1.80;;
26335;SDS011;14047;50.936;4.654;2023-07-13T10:24:27;8.75;;;2.00;;
26335;SDS011;14047;50.936;4.654;2023-07-13T10:27:09;7.63;;;2.25;;
26335;SDS011;14047;50.936;4.654;2023-07-13T10:29:48;6.88;;;1.70;;
26335;SDS011;14047;50.936;4.654;2023-07-13T10:32:18;5.05;;;1.77;;
26335;SDS011;14047;50.936;4.654;2023-07-13T10:34:47;5.38;;;1.30;;
26335;SDS011;14047;50.936;4.654;2023-07-13T10:37:16;7.80;;;1.48;;
26335;SDS011;14047;50.936;4.654;2023-07-13T10:39:46;6.25;;;1.65;;
26335;SDS011;14047;50.936;4.654;2023-07-13T10:42:15;7.07;;;1.85;;
26335;SDS011;14047;50.936;4.654;2023-07-13T10:44:47;4.45;;;2.05;;
26335;SDS011;14047;50.936;4.654;2023-07-13T10:47:14;6.32;;;1.58;;
26335;SDS011;14047;50.936;4.654;2023-07-13T10:49:43;3.25;;;1.40;;
26335;SDS011;14047;50.936;4.654;2023-07-13T10:55:30;9.23;;;1.65;;
26335;SDS011;14047;50.936;4.654;2023-07-13T10:57:59;6.72;;;1.50;;
26335;SDS011;14047;50.936;4.654;2023-07-13T11:00:49;6.95;;;1.70;;
26335;SDS011;14047;50.936;4.654;2023-07-13T11:03:28;5.65;;;1.52;;
26335;SDS011;14047;50.936;4.654;2023-07-13T11:08:58;14.32;;;1.90;;
26335;SDS011;14047;50.936;4.654;2023-07-13T11:14:00;5.07;;;1.75;;
26335;SDS011;14047;50.936;4.654;2023-07-13T11:16:37;6.18;;;1.70;;
26335;SDS011;14047;50.936;4.654;2023-07-13T11:19:24;7.63;;;1.45;;
26335;SDS011;14047;50.936;4.654;2023-07-13T11:22:03;4.78;;;1.70;;
26335;SDS011;14047;50.936;4.654;2023-07-13T11:27:21;9.85;;;2.42;;
26335;SDS011;14047;50.936;4.654;2023-07-13T11:32:51;8.55;;;2.25;;
26335;SDS011;14047;50.936;4.654;2023-07-13T11:35:36;7.15;;;2.28;;
26335;SDS011;14047;50.936;4.654;2023-07-13T11:38:12;7.00;;;2.33;;
26335;SDS011;14047;50.936;4.654;2023-07-13T11:40:48;9.90;;;2.38;;
26335;SDS011;14047;50.936;4.654;2023-07-13T11:43:18;6.93;;;1.58;;
26335;SDS011;14047;50.936;4.654;2023-07-13T11:45:44;11.18;;;1.98;;
26335;SDS011;14047;50.936;4.654;2023-07-13T11:48:17;6.93;;;1.90;;
26335;SDS011;14047;50.936;4.654;2023-07-13T11:50:57;6.47;;;1.80;;
26335;SDS011;14047;50.936;4.654;2023-07-13T11:53:26;5.65;;;1.48;;
26335;SDS011;14047;50.936;4.654;2023-07-13T11:55:54;9.57;;;2.03;;
26335;SDS011;14047;50.936;4.654;2023-07-13T11:58:23;6.55;;;1.95;;
26335;SDS011;14047;50.936;4.654;2023-07-13T12:00:50;7.43;;;1.60;;
26335;SDS011;14047;50.936;4.654;2023-07-13T12:03:20;3.45;;;1.45;;
26335;SDS011;14047;50.936;4.654;2023-07-13T12:05:56;3.05;;;1.30;;
26335;SDS011;14047;50.936;4.654;2023-07-13T12:08:23;6.40;;;1.67;;
26335;SDS011;14047;50.936;4.654;2023-07-13T12:10:56;5.53;;;1.50;;
26335;SDS011;14047;50.936;4.654;2023-07-13T12:13:34;3.95;;;1.42;;
26335;SDS011;14047;50.936;4.654;2023-07-13T12:16:02;7.93;;;1.88;;
26335;SDS011;14047;50.936;4.654;2023-07-13T12:18:33;7.28;;;1.80;;
26335;SDS011;14047;50.936;4.654;2023-07-13T12:20:59;7.35;;;1.55;;
26335;SDS011;14047;50.936;4.654;2023-07-13T12:23:28;5.35;;;1.35;;
26335;SDS011;14047;50.936;4.654;2023-07-13T12:25:59;7.60;;;1.40;;
26335;SDS011;14047;50.936;4.654;2023-07-13T12:28:35;5.47;;;1.60;;
26335;SDS011;14047;50.936;4.654;2023-07-13T12:33:59;7.57;;;1.75;;
26335;SDS011;14047;50.936;4.654;2023-07-13T12:36:47;5.63;;;1.65;;
26335;SDS011;14047;50.936;4.654;2023-07-13T12:41:42;4.80;;;1.95;;
26335;SDS011;14047;50.936;4.654;2023-07-13T12:44:14;4.00;;;1.92;;
26335;SDS011;14047;50.936;4.654;2023-07-13T12:46:59;5.95;;;1.45;;
26335;SDS011;14047;50.936;4.654;2023-07-13T12:49:31;4.70;;;1.65;;
26335;SDS011;14047;50.936;4.654;2023-07-13T12:52:00;8.60;;;2.20;;
26335;SDS011;14047;50.936;4.654;2023-07-13T12:54:29;4.70;;;1.90;;
26335;SDS011;14047;50.936;4.654;2023-07-13T12:56:56;3.90;;;1.48;;
26335;SDS011;14047;50.936;4.654;2023-07-13T12:59:25;6.40;;;1.52;;
26335;SDS011;14047;50.936;4.654;2023-07-13T13:01:55;4.28;;;1.40;;
26335;SDS011;14047;50.936;4.654;2023-07-13T13:04:21;4.97;;;1.52;;
26335;SDS011;14047;50.936;4.654;2023-07-13T13:06:48;2.15;;;1.45;;
26335;SDS011;14047;50.936;4.654;2023-07-13T13:09:15;3.10;;;1.50;;
26335;SDS011;14047;50.936;4.654;2023-07-13T13:11:43;4.00;;;1.80;;
26335;SDS011;14047;50.936;4.654;2023-07-13T13:14:09;4.75;;;1.73;;
26335;SDS011;14047;50.936;4.654;2023-07-13T13:16:37;5.93;;;2.30;;
26335;SDS011;14047;50.936;4.654;2023-07-13T13:19:19;6.03;;;1.90;;
26335;SDS011;14047;50.936;4.654;2023-07-13T13:21:50;2.75;;;1.75;;
26335;SDS011;14047;50.936;4.654;2023-07-13T13:24:18;4.85;;;1.58;;
26335;SDS011;14047;50.936;4.654;2023-07-13T13:26:46;3.13;;;1.48;;
26335;SDS011;14047;50.936;4.654;2023-07-13T13:29:14;6.75;;;2.42;;
26335;SDS011;14047;50.936;4.654;2023-07-13T13:31:45;6.38;;;2.10;;
26335;SDS011;14047;50.936;4.654;2023-07-13T13:34:13;7.43;;;2.88;;
26335;SDS011;14047;50.936;4.654;2023-07-13T13:36:40;4.93;;;2.40;;
26335;SDS011;14047;50.936;4.654;2023-07-13T13:39:30;7.35;;;2.50;;
26335;SDS011;14047;50.936;4.654;2023-07-13T13:42:01;7.68;;;2.28;;
26335;SDS011;14047;50.936;4.654;2023-07-13T13:44:27;6.10;;;2.30;;
26335;SDS011;14047;50.936;4.654;2023-07-13T13:46:53;6.90;;;2.70;;
26335;SDS011;14047;50.936;4.654;2023-07-13T13:49:22;4.53;;;1.85;;
26335;SDS011;14047;50.936;4.654;2023-07-13T13:51:52;3.75;;;1.92;;
26335;SDS011;14047;50.936;4.654;2023-07-13T13:54:20;5.05;;;2.13;;
26335;SDS011;14047;50.936;4.654;2023-07-13T13:56:48;4.93;;;2.13;;
26335;SDS011;14047;50.936;4.654;2023-07-13T13:59:16;5.32;;;1.80;;
26335;SDS011;14047;50.936;4.654;2023-07-13T14:01:42;4.88;;;1.83;;
26335;SDS011;14047;50.936;4.654;2023-07-13T14:04:27;5.57;;;1.50;;
26335;SDS011;14047;50.936;4.654;2023-07-13T14:06:53;3.78;;;1.50;;
26335;SDS011;14047;50.936;4.654;2023-07-13T14:09:19;4.35;;;1.70;;
26335;SDS011;14047;50.936;4.654;2023-07-13T14:11:46;4.03;;;1.63;;
26335;SDS011;14047;50.936;4.654;2023-07-13T14:14:19;4.40;;;1.75;;
26335;SDS011;14047;50.936;4.654;2023-07-13T14:16:47;6.22;;;1.58;;
26335;SDS011;14047;50.936;4.654;2023-07-13T14:19:18;5.03;;;1.58;;
26335;SDS011;14047;50.936;4.654;2023-07-13T14:21:45;4.00;;;1.27;;
26335;SDS011;14047;50.936;4.654;2023-07-13T14:24:12;3.75;;;1.40;;
26335;SDS011;14047;50.936;4.654;2023-07-13T14:26:40;3.05;;;1.10;;
26335;SDS011;14047;50.936;4.654;2023-07-13T14:29:13;3.17;;;1.10;;
26335;SDS011;14047;50.936;4.654;2023-07-13T14:31:43;3.38;;;1.10;;
26335;SDS011;14047;50.936;4.654;2023-07-13T14:34:12;5.07;;;0.90;;
26335;SDS011;14047;50.936;4.654;2023-07-13T14:36:41;3.38;;;1.10;;
26335;SDS011;14047;50.936;4.654;2023-07-13T14:39:18;6.32;;;1.27;;
26335;SDS011;14047;50.936;4.654;2023-07-13T14:41:49;4.38;;;1.58;;
26335;SDS011;14047;50.936;4.654;2023-07-13T14:44:17;1.92;;;1.00;;
26335;SDS011;14047;50.936;4.654;2023-07-13T14:46:46;2.53;;;1.23;;
26335;SDS011;14047;50.936;4.654;2023-07-13T14:51:50;2.58;;;1.10;;
26335;SDS011;14047;50.936;4.654;2023-07-13T14:54:16;3.67;;;1.02;;
26335;SDS011;14047;50.936;4.654;2023-07-13T14:56:42;5.00;;;1.48;;
26335;SDS011;14047;50.936;4.654;2023-07-13T14:59:08;5.03;;;1.13;;
26335;SDS011;14047;50.936;4.654;2023-07-13T15:01:34;3.75;;;1.20;;
26335;SDS011;14047;50.936;4.654;2023-07-13T15:04:02;3.10;;;1.30;;
26335;SDS011;14047;50.936;4.654;2023-07-13T15:06:29;5.20;;;1.98;;
26335;SDS011;14047;50.936;4.654;2023-07-13T15:08:56;5.70;;;1.38;;
26335;SDS011;14047;50.936;4.654;2023-07-13T15:11:23;5.05;;;1.05;;
26335;SDS011;14047;50.936;4.654;2023-07-13T15:13:49;5.43;;;1.67;;
26335;SDS011;14047;50.936;4.654;2023-07-13T15:16:22;4.60;;;1.33;;
26335;SDS011;14047;50.936;4.654;2023-07-13T15:18:50;3.00;;;1.20;;
26335;SDS011;14047;50.936;4.654;2023-07-13T15:21:21;2.38;;;1.13;;
26335;SDS011;14047;50.936;4.654;2023-07-13T15:23:49;3.40;;;1.27;;
26335;SDS011;14047;50.936;4.654;2023-07-13T15:26:17;4.97;;;1.33;;
26335;SDS011;14047;50.936;4.654;2023-07-13T15:28:44;3.50;;;0.98;;
26335;SDS011;14047;50.936;4.654;2023-07-13T15:31:22;5.97;;;1.70;;
26335;SDS011;14047;50.936;4.654;2023-07-13T15:33:53;4.45;;;1.10;;